metar:  

KBOI 092053Z 30007KT 10SM CLR 07/M01 A3018 RMK AO2 SLP231 T00671011 58012

TTF METAR YSSY 092100Z 30005KT 8000 NSC 23/19 Q1012 RMK RF00.0/000.0 FU FM2130 31006KT 7000 FU NSC FM2200 34008KT 4000 FU NSC